createdAt,value
2019-04-10T00:01:44.645Z,11.10
2019-04-10T00:04:13.246Z,11.00
2019-04-10T00:06:41.709Z,10.90
2019-04-10T00:09:10.598Z,10.90
2019-04-10T00:11:39.188Z,10.90
2019-04-10T00:14:08.234Z,10.90
2019-04-10T00:16:36.820Z,10.80
2019-04-10T00:19:05.240Z,10.70
2019-04-10T00:21:33.660Z,10.70
2019-04-10T00:24:02.156Z,10.60
2019-04-10T00:26:30.584Z,10.60
2019-04-10T00:29:00.138Z,10.50
2019-04-10T00:31:29.757Z,10.50
2019-04-10T00:33:58.969Z,10.40
2019-04-10T00:36:27.610Z,10.40
2019-04-10T00:38:56.027Z,10.40
2019-04-10T00:41:24.453Z,10.40
2019-04-10T00:43:52.880Z,10.50
2019-04-10T00:46:22.136Z,10.50
2019-04-10T00:48:50.589Z,10.60
2019-04-10T00:51:19.318Z,10.50
2019-04-10T00:53:47.837Z,10.50
2019-04-10T00:56:16.570Z,10.50
2019-04-10T00:58:45.769Z,10.60
2019-04-10T01:01:14.372Z,10.60
2019-04-10T01:03:43.024Z,10.60
2019-04-10T01:06:13.668Z,10.60
2019-04-10T01:08:42.764Z,10.50
2019-04-10T01:11:11.428Z,10.50
2019-04-10T01:13:39.853Z,10.50
2019-04-10T01:16:09.217Z,10.60
2019-04-10T01:18:37.797Z,10.50
2019-04-10T01:21:06.268Z,10.50
2019-04-10T01:23:35.118Z,10.60
2019-04-10T01:26:03.765Z,10.60
2019-04-10T01:28:33.143Z,10.50
2019-04-10T01:31:02.503Z,10.50
2019-04-10T01:33:31.117Z,10.60
2019-04-10T01:35:59.542Z,10.50
2019-04-10T01:38:28.022Z,10.50
2019-04-10T01:40:56.455Z,10.60
2019-04-10T01:43:24.881Z,10.60
2019-04-10T01:45:53.674Z,10.50
2019-04-10T01:48:22.149Z,10.60
2019-04-10T01:50:52.868Z,10.60
2019-04-10T01:53:21.749Z,10.50
2019-04-10T01:55:51.321Z,10.50
2019-04-10T01:58:21.474Z,10.50
2019-04-10T02:01:01.825Z,10.40
2019-04-10T02:03:30.475Z,10.40
2019-04-10T02:05:58.904Z,10.40
2019-04-10T02:08:27.338Z,10.40
2019-04-10T02:10:56.545Z,10.30
2019-04-10T02:13:25.475Z,10.30
2019-04-10T02:15:54.470Z,10.20
2019-04-10T02:18:23.480Z,10.20
2019-04-10T02:20:52.037Z,10.20
2019-04-10T02:23:20.717Z,10.20
2019-04-10T02:25:49.362Z,10.20
2019-04-10T02:28:18.611Z,10.10
2019-04-10T02:30:47.893Z,10.20
2019-04-10T02:33:17.882Z,10.20
2019-04-10T02:35:47.674Z,10.30
2019-04-10T02:38:30.938Z,10.30
2019-04-10T02:40:47.516Z,10.40
2019-04-10T02:43:16.297Z,10.40
2019-04-10T02:45:44.947Z,10.30
2019-04-10T02:48:14.898Z,10.10
2019-04-10T02:50:44.783Z,10.00
2019-04-10T02:53:15.143Z,10.10
2019-04-10T02:55:43.650Z,10.00
2019-04-10T02:58:12.171Z,10.10
2019-04-10T03:00:42.148Z,10.10
2019-04-10T03:03:12.022Z,10.10
2019-04-10T03:05:40.778Z,10.10
2019-04-10T03:08:11.013Z,10.10
2019-04-10T03:10:47.496Z,10.10
2019-04-10T03:13:11.472Z,10.00
2019-04-10T03:15:40.931Z,10.00
2019-04-10T03:18:09.487Z,10.00
2019-04-10T03:20:38.488Z,10.00
2019-04-10T03:23:07.329Z,10.00
2019-04-10T03:25:35.787Z,10.00
2019-04-10T03:28:05.080Z,10.10
2019-04-10T03:30:35.865Z,10.10
2019-04-10T03:33:10.821Z,10.10
2019-04-10T03:35:43.306Z,10.10
2019-04-10T03:38:11.981Z,10.10
2019-04-10T03:40:41.509Z,10.10
2019-04-10T03:43:10.210Z,10.00
2019-04-10T03:45:38.931Z,10.00
2019-04-10T03:48:08.440Z,10.10
2019-04-10T03:50:37.010Z,10.00
2019-04-10T03:53:05.570Z,10.00
2019-04-10T03:55:34.871Z,10.10
2019-04-10T03:58:03.415Z,10.20
2019-04-10T04:00:31.883Z,10.10
2019-04-10T04:03:00.321Z,10.10
2019-04-10T04:05:28.900Z,10.00
2019-04-10T04:07:57.391Z,10.00
2019-04-10T04:10:26.750Z,9.90
2019-04-10T04:12:55.275Z,9.90
2019-04-10T04:15:24.017Z,9.90
2019-04-10T04:17:52.695Z,9.90
2019-04-10T04:20:21.203Z,9.90
2019-04-10T04:22:49.652Z,10.00
2019-04-10T04:25:18.093Z,9.90
2019-04-10T04:27:46.508Z,9.90
2019-04-10T04:30:15.043Z,9.90
2019-04-10T04:32:44.096Z,9.90
2019-04-10T04:35:13.216Z,9.90
2019-04-10T04:37:42.238Z,9.80
2019-04-10T04:40:11.139Z,9.90
2019-04-10T04:42:40.650Z,9.90
2019-04-10T04:45:09.339Z,9.90
2019-04-10T04:47:37.755Z,9.90
2019-04-10T04:50:06.302Z,9.90
2019-04-10T04:52:34.975Z,9.90
2019-04-10T04:55:05.967Z,9.90
2019-04-10T04:57:36.503Z,9.90
2019-04-10T05:00:06.279Z,9.90
2019-04-10T05:02:35.625Z,9.90
2019-04-10T05:05:05.163Z,9.90
2019-04-10T05:07:33.595Z,9.90
2019-04-10T05:10:02.792Z,9.90
2019-04-10T05:12:31.822Z,9.80
2019-04-10T05:15:00.427Z,9.80
2019-04-10T05:17:28.867Z,9.80
2019-04-10T05:19:57.263Z,9.90
2019-04-10T05:22:26.462Z,9.90
2019-04-10T05:24:54.889Z,9.80
2019-04-10T05:27:23.315Z,9.90
2019-04-10T05:29:51.705Z,9.90
2019-04-10T05:32:21.324Z,9.90
2019-04-10T05:34:50.409Z,9.80
2019-04-10T05:37:19.184Z,9.80
2019-04-10T05:39:50.890Z,9.70
2019-04-10T05:42:17.797Z,9.70
2019-04-10T05:44:46.546Z,9.80
2019-04-10T05:47:14.983Z,9.80
2019-04-10T05:49:43.387Z,9.80
2019-04-10T05:52:12.659Z,9.70
2019-04-10T05:54:41.656Z,9.70
2019-04-10T05:57:10.376Z,9.70
2019-04-10T05:59:38.941Z,9.70
2019-04-10T06:02:10.161Z,9.70
2019-04-10T06:04:38.591Z,9.70
2019-04-10T06:07:07.004Z,9.70
2019-04-10T06:09:36.517Z,9.70
2019-04-10T06:12:05.770Z,9.60
2019-04-10T06:14:35.283Z,9.60
2019-04-10T06:17:04.252Z,9.60
2019-04-10T06:19:32.915Z,9.60
2019-04-10T06:22:01.332Z,9.60
2019-04-10T06:24:30.039Z,9.50
2019-04-10T06:26:59.606Z,9.50
2019-04-10T06:29:28.805Z,9.50
2019-04-10T06:31:57.416Z,9.50
2019-04-10T06:34:26.042Z,9.50
2019-04-10T06:36:54.502Z,9.40
2019-04-10T06:39:22.954Z,9.40
2019-04-10T06:41:51.335Z,9.40
2019-04-10T06:44:19.755Z,9.50
2019-04-10T06:46:48.608Z,9.50
2019-04-10T06:49:17.180Z,9.50
2019-04-10T06:51:45.583Z,9.60
2019-04-10T06:54:16.466Z,9.60
2019-04-10T06:56:45.404Z,9.60
2019-04-10T06:59:16.183Z,9.70
2019-04-10T07:01:51.183Z,9.80
2019-04-10T07:04:15.500Z,9.80
2019-04-10T07:06:57.319Z,9.70
2019-04-10T07:09:18.203Z,9.60
2019-04-10T07:11:47.910Z,9.50
2019-04-10T07:14:18.126Z,9.50
2019-04-10T07:16:46.873Z,9.50
2019-04-10T07:19:15.735Z,9.60
2019-04-10T07:21:44.267Z,9.70
2019-04-10T07:24:15.027Z,9.70
2019-04-10T07:26:45.945Z,9.80
2019-04-10T07:29:16.412Z,9.80
2019-04-10T07:31:43.276Z,9.60
2019-04-10T07:34:11.680Z,9.60
2019-04-10T07:36:42.104Z,9.70
2019-04-10T07:39:10.259Z,9.80
2019-04-10T07:41:39.640Z,9.90
2019-04-10T07:44:08.162Z,10.00
2019-04-10T07:46:36.604Z,10.00
2019-04-10T07:49:05.008Z,10.00
2019-04-10T07:51:34.073Z,9.90
2019-04-10T07:54:02.525Z,9.90
2019-04-10T07:56:31.167Z,9.80
2019-04-10T07:59:00.575Z,9.80
2019-04-10T08:01:29.204Z,9.80
2019-04-10T08:03:57.765Z,9.80
2019-04-10T08:06:26.181Z,9.80
2019-04-10T08:08:55.505Z,9.60
2019-04-10T08:11:24.051Z,9.60
2019-04-10T08:13:53.266Z,9.60
2019-04-10T08:16:23.213Z,9.70
2019-04-10T08:18:52.129Z,9.70
2019-04-10T08:21:21.771Z,9.80
2019-04-10T08:23:51.425Z,9.90
2019-04-10T08:26:21.284Z,9.90
2019-04-10T08:28:49.895Z,9.90
2019-04-10T08:31:19.031Z,9.90
2019-04-10T08:33:47.599Z,9.70
2019-04-10T08:36:16.137Z,9.70
2019-04-10T08:38:44.608Z,9.60
2019-04-10T08:41:13.019Z,9.70
2019-04-10T08:43:41.721Z,9.60
2019-04-10T08:46:10.864Z,9.60
2019-04-10T08:48:39.486Z,9.70
2019-04-10T08:51:08.683Z,9.60
2019-04-10T08:53:38.192Z,9.50
2019-04-10T08:56:06.723Z,9.40
2019-04-10T08:58:35.146Z,9.50
2019-04-10T09:01:05.011Z,9.60
2019-04-10T09:03:33.521Z,9.60
2019-04-10T09:06:02.884Z,9.60
2019-04-10T09:08:31.459Z,9.50
2019-04-10T09:11:00.870Z,9.40
2019-04-10T09:13:30.573Z,9.40
2019-04-10T09:16:00.337Z,9.60
2019-04-10T09:18:29.520Z,9.50
2019-04-10T09:20:59.303Z,9.60
2019-04-10T09:23:38.748Z,9.70
2019-04-10T09:25:58.070Z,9.70
2019-04-10T09:28:26.575Z,9.60
2019-04-10T09:30:55.352Z,9.70
2019-04-10T09:33:27.548Z,9.80
2019-04-10T09:35:55.101Z,9.70
2019-04-10T09:38:23.705Z,9.80
2019-04-10T09:40:53.225Z,9.90
2019-04-10T09:43:21.799Z,9.80
2019-04-10T09:45:51.513Z,9.80
2019-04-10T09:48:20.056Z,9.80
2019-04-10T09:50:48.452Z,9.90
2019-04-10T09:53:17.110Z,9.90
2019-04-10T09:55:46.830Z,9.90
2019-04-10T09:58:15.362Z,10.00
2019-04-10T10:00:43.841Z,10.10
2019-04-10T10:03:12.319Z,10.20
2019-04-10T10:05:40.719Z,10.40
2019-04-10T10:08:09.193Z,10.50
2019-04-10T10:10:38.394Z,10.60
2019-04-10T10:13:09.505Z,10.70
2019-04-10T10:15:38.090Z,10.60
2019-04-10T10:18:06.520Z,10.60
2019-04-10T10:20:37.610Z,10.60
2019-04-10T10:23:05.408Z,10.80
2019-04-10T10:25:34.043Z,10.80
2019-04-10T10:28:02.839Z,10.80
2019-04-10T10:30:31.532Z,10.80
2019-04-10T10:33:00.077Z,10.80
2019-04-10T10:35:29.329Z,10.90
2019-04-10T10:37:58.844Z,11.00
2019-04-10T10:40:27.740Z,11.00
2019-04-10T10:42:56.246Z,11.00
2019-04-10T10:45:24.993Z,11.00
2019-04-10T10:47:54.651Z,11.10
2019-04-10T10:50:23.640Z,11.20
2019-04-10T10:52:52.215Z,11.20
2019-04-10T10:55:21.287Z,11.10
2019-04-10T10:57:51.115Z,11.20
2019-04-10T11:00:21.410Z,11.10
2019-04-10T11:02:49.940Z,11.30
2019-04-10T11:05:19.065Z,11.30
2019-04-10T11:07:48.882Z,11.30
2019-04-10T11:10:22.869Z,11.10
2019-04-10T11:12:48.432Z,11.10
2019-04-10T11:15:18.535Z,11.30
2019-04-10T11:17:47.196Z,11.50
2019-04-10T11:20:17.639Z,11.70
2019-04-10T11:22:47.398Z,11.80
2019-04-10T11:25:16.023Z,12.00
2019-04-10T11:27:44.432Z,12.30
2019-04-10T11:30:13.566Z,12.50
2019-04-10T11:32:42.368Z,12.70
2019-04-10T11:35:12.958Z,13.00
2019-04-10T11:37:44.903Z,13.00
2019-04-10T11:40:14.668Z,13.20
2019-04-10T11:42:42.910Z,13.30
2019-04-10T11:45:16.190Z,13.50
2019-04-10T11:47:44.839Z,13.90
2019-04-10T11:50:17.869Z,14.00
2019-04-10T11:52:51.905Z,13.90
2019-04-10T11:55:19.964Z,13.80
2019-04-10T11:57:48.957Z,13.60
2019-04-10T12:00:20.370Z,13.40
2019-04-10T12:02:52.406Z,13.80
2019-04-10T12:05:20.129Z,14.00
2019-04-10T12:08:07.789Z,13.70
2019-04-10T12:12:49.930Z,13.50
2019-04-10T12:15:19.147Z,13.40
2019-04-10T12:17:47.556Z,13.50
2019-04-10T12:20:16.735Z,13.50
2019-04-10T12:22:46.172Z,13.30
2019-04-10T12:25:16.628Z,13.20
2019-04-10T12:27:45.360Z,13.00
2019-04-10T12:30:15.176Z,12.90
2019-04-10T12:32:43.835Z,12.70
2019-04-10T12:35:13.828Z,12.60
2019-04-10T12:37:43.348Z,12.40
2019-04-10T12:40:12.266Z,12.30
2019-04-10T12:42:40.719Z,12.20
2019-04-10T12:45:09.700Z,12.20
2019-04-10T12:47:38.115Z,12.30
2019-04-10T12:50:08.099Z,12.30
2019-04-10T12:52:36.691Z,12.50
2019-04-10T12:55:08.027Z,12.60
2019-04-10T12:57:37.087Z,12.80
2019-04-10T13:00:09.707Z,13.00
2019-04-10T13:02:38.648Z,13.00
2019-04-10T13:05:07.416Z,13.30
2019-04-10T13:07:35.996Z,13.20
2019-04-10T13:10:06.593Z,13.20
2019-04-10T13:12:35.466Z,13.30
2019-04-10T13:15:09.475Z,13.40
2019-04-10T13:17:38.606Z,13.50
2019-04-10T13:20:10.376Z,13.40
2019-04-10T13:22:38.776Z,13.30
2019-04-10T13:25:08.257Z,13.30
2019-04-10T13:27:36.903Z,13.40
2019-04-10T13:30:10.299Z,13.60
2019-04-10T13:32:38.124Z,13.70
2019-04-10T13:35:08.117Z,13.90
2019-04-10T13:37:37.819Z,14.10
2019-04-10T13:40:07.650Z,14.20
2019-04-10T13:42:37.135Z,14.20
2019-04-10T13:45:07.925Z,14.00
2019-04-10T13:47:36.602Z,13.80
2019-04-10T13:50:10.352Z,13.80
2019-04-10T13:52:40.607Z,14.10
2019-04-10T13:55:10.332Z,14.00
2019-04-10T13:57:39.969Z,14.00
2019-04-10T14:00:20.049Z,14.00
2019-04-10T14:02:48.464Z,14.00
2019-04-10T14:05:17.905Z,14.20
2019-04-10T14:07:46.458Z,14.20
2019-04-10T14:10:16.171Z,14.00
2019-04-10T14:12:44.640Z,14.00
2019-04-10T14:15:14.019Z,13.90
2019-04-10T14:17:42.500Z,13.80
2019-04-10T14:20:13.091Z,13.80
2019-04-10T14:22:44.072Z,13.80
2019-04-10T14:25:14.195Z,13.80
2019-04-10T14:27:42.672Z,13.70
2019-04-10T14:30:13.275Z,13.80
2019-04-10T14:32:41.935Z,13.60
2019-04-10T14:35:11.426Z,13.50
2019-04-10T14:37:41.214Z,13.40
2019-04-10T14:40:11.686Z,13.40
2019-04-10T14:42:40.366Z,13.30
2019-04-10T14:45:09.139Z,13.30
2019-04-10T14:47:37.723Z,13.50
2019-04-10T14:50:07.546Z,13.40
2019-04-10T14:52:37.155Z,13.40
2019-04-10T14:55:06.212Z,13.50
2019-04-10T14:57:34.951Z,13.40
2019-04-10T15:00:10.684Z,13.50
2019-04-10T15:02:39.780Z,13.40
2019-04-10T15:05:09.974Z,13.50
2019-04-10T15:07:39.431Z,13.40
2019-04-10T15:10:08.997Z,13.30
2019-04-10T15:12:37.454Z,13.40
2019-04-10T15:15:06.419Z,13.30
2019-04-10T15:17:35.033Z,13.30
2019-04-10T15:20:04.917Z,13.30
2019-04-10T15:22:33.834Z,13.40
2019-04-10T15:25:02.483Z,13.50
2019-04-10T15:27:31.005Z,13.60
2019-04-10T15:29:59.424Z,13.70
2019-04-10T15:32:27.839Z,13.70
2019-04-10T15:34:56.275Z,13.70
2019-04-10T15:37:24.926Z,13.60
2019-04-10T15:39:53.967Z,13.60
2019-04-10T15:42:22.520Z,13.70
2019-04-10T15:44:50.984Z,13.70
2019-04-10T15:47:22.562Z,13.80
2019-04-10T15:49:49.573Z,13.70
2019-04-10T15:52:18.025Z,13.80
2019-04-10T15:54:46.465Z,13.70
2019-04-10T15:57:14.871Z,13.70
2019-04-10T15:59:44.158Z,13.50
2019-04-10T16:02:13.255Z,13.30
2019-04-10T16:04:42.329Z,13.40
2019-04-10T16:07:11.918Z,13.30
2019-04-10T16:09:49.158Z,13.30
2019-04-10T16:12:18.609Z,13.30
2019-04-10T16:14:47.229Z,13.40
2019-04-10T16:17:34.844Z,13.40
2019-04-10T16:20:15.524Z,13.40
2019-04-10T16:22:46.703Z,13.40
2019-04-10T16:25:19.986Z,13.30
2019-04-10T16:27:48.495Z,13.20
2019-04-10T16:30:18.645Z,13.20
2019-04-10T16:32:47.045Z,13.20
2019-04-10T16:35:15.747Z,13.20
2019-04-10T16:37:44.279Z,13.30
2019-04-10T16:40:13.239Z,13.20
2019-04-10T16:42:41.878Z,13.10
2019-04-10T16:45:11.138Z,13.10
2019-04-10T16:47:39.557Z,13.10
2019-04-10T16:50:09.218Z,13.10
2019-04-10T16:52:38.893Z,13.10
2019-04-10T16:55:08.378Z,13.10
2019-04-10T16:57:36.855Z,13.10
2019-04-10T17:00:06.970Z,13.00
2019-04-10T17:02:36.042Z,13.00
2019-04-10T17:05:08.093Z,13.00
2019-04-10T17:07:36.744Z,13.00
2019-04-10T17:10:14.050Z,12.90
2019-04-10T17:12:38.467Z,12.80
2019-04-10T17:15:08.407Z,12.60
2019-04-10T17:17:36.864Z,12.50
2019-04-10T17:20:09.570Z,12.50
2019-04-10T17:22:43.735Z,12.40
2019-04-10T17:25:09.407Z,12.30
2019-04-10T17:27:38.068Z,12.30
2019-04-10T17:30:09.447Z,12.30
2019-04-10T17:32:38.518Z,12.30
2019-04-10T17:35:09.547Z,12.30
2019-04-10T17:37:40.231Z,12.30
2019-04-10T17:40:26.356Z,12.30
2019-04-10T17:42:44.193Z,12.40
2019-04-10T17:45:14.199Z,12.40
2019-04-10T17:47:42.947Z,12.50
2019-04-10T17:50:14.157Z,12.50
2019-04-10T17:52:43.264Z,12.50
2019-04-10T17:55:11.815Z,12.60
2019-04-10T17:57:44.600Z,12.60
2019-04-10T18:00:25.432Z,12.50
2019-04-10T18:02:54.987Z,12.50
2019-04-10T18:05:23.623Z,12.50
2019-04-10T18:07:52.407Z,12.50
2019-04-10T18:10:20.899Z,12.50
2019-04-10T18:12:49.404Z,12.50
2019-04-10T18:15:17.835Z,12.50
2019-04-10T18:17:47.159Z,12.50
2019-04-10T18:20:15.808Z,12.40
2019-04-10T18:22:44.921Z,12.40
2019-04-10T18:25:13.868Z,12.40
2019-04-10T18:27:42.858Z,12.40
2019-04-10T18:30:12.093Z,12.40
2019-04-10T18:32:40.511Z,12.30
2019-04-10T18:35:09.011Z,12.30
2019-04-10T18:37:37.420Z,12.30
2019-04-10T18:40:07.457Z,12.30
2019-04-10T18:42:37.345Z,12.30
2019-04-10T18:45:07.504Z,12.30
2019-04-10T18:47:38.083Z,12.20
2019-04-10T18:50:07.909Z,12.20
2019-04-10T18:52:37.343Z,12.10
2019-04-10T18:55:06.491Z,11.90
2019-04-10T18:57:35.731Z,12.00
2019-04-10T19:00:10.125Z,12.00
2019-04-10T19:02:57.169Z,11.90
2019-04-10T19:05:30.340Z,11.90
2019-04-10T19:07:58.793Z,11.80
2019-04-10T19:10:28.582Z,11.80
2019-04-10T19:12:57.320Z,11.80
2019-04-10T19:15:25.737Z,11.70
2019-04-10T19:17:55.180Z,11.80
2019-04-10T19:20:24.877Z,11.60
2019-04-10T19:22:53.432Z,11.60
2019-04-10T19:25:22.733Z,11.50
2019-04-10T19:27:51.261Z,11.40
2019-04-10T19:30:27.101Z,11.40
2019-04-10T19:32:55.513Z,11.40
2019-04-10T19:35:23.928Z,11.40
2019-04-10T19:37:52.934Z,11.20
2019-04-10T19:40:21.540Z,11.20
2019-04-10T19:42:49.940Z,11.20
2019-04-10T19:45:19.446Z,11.30
2019-04-10T19:47:48.148Z,11.20
2019-04-10T19:50:17.321Z,11.20
2019-04-10T19:52:46.746Z,11.20
2019-04-10T19:55:15.591Z,11.30
2019-04-10T19:57:44.115Z,11.20
2019-04-10T20:00:14.483Z,11.10
2019-04-10T20:02:43.591Z,11.20
2019-04-10T20:05:12.877Z,10.90
2019-04-10T20:07:41.404Z,10.80
2019-04-10T20:10:10.896Z,10.80
2019-04-10T20:12:40.356Z,10.80
2019-04-10T20:15:10.034Z,10.80
2019-04-10T20:17:38.550Z,10.70
2019-04-10T20:20:07.499Z,10.70
2019-04-10T20:22:36.894Z,10.70
2019-04-10T20:25:06.130Z,10.70
2019-04-10T20:27:34.705Z,10.70
2019-04-10T20:30:03.960Z,10.60
2019-04-10T20:32:32.374Z,10.50
2019-04-10T20:35:00.756Z,10.40
2019-04-10T20:37:29.214Z,10.40
2019-04-10T20:39:58.075Z,10.30
2019-04-10T20:42:26.684Z,10.20
2019-04-10T20:44:55.176Z,10.30
2019-04-10T20:47:24.601Z,10.20
2019-04-10T20:49:53.355Z,10.20
2019-04-10T20:52:22.112Z,10.20
2019-04-10T20:54:50.674Z,10.00
2019-04-10T20:57:19.424Z,10.00
2019-04-10T20:59:48.899Z,10.00
2019-04-10T21:02:18.071Z,9.90
2019-04-10T21:04:54.573Z,9.80
2019-04-10T21:07:16.905Z,9.80
2019-04-10T21:09:45.373Z,9.80
2019-04-10T21:12:17.606Z,9.80
2019-04-10T21:14:44.001Z,9.60
2019-04-10T21:17:12.488Z,9.60
2019-04-10T21:19:43.187Z,9.70
2019-04-10T21:22:11.734Z,9.80
2019-04-10T21:24:41.042Z,9.70
2019-04-10T21:27:09.804Z,9.70
2019-04-10T21:29:48.851Z,9.70
2019-04-10T21:32:24.644Z,9.80
2019-04-10T21:34:53.528Z,9.80
2019-04-10T21:37:22.214Z,9.60
2019-04-10T21:39:52.186Z,9.50
2019-04-10T21:42:23.622Z,9.50
2019-04-10T21:44:51.309Z,9.50
2019-04-10T21:47:19.840Z,9.50
2019-04-10T21:49:48.463Z,9.40
2019-04-10T21:52:17.043Z,9.40
2019-04-10T21:54:51.134Z,9.40
2019-04-10T21:57:16.056Z,9.30
2019-04-10T21:59:45.502Z,9.40
2019-04-10T22:02:15.334Z,9.40
2019-04-10T22:04:44.155Z,9.40
2019-04-10T22:07:16.775Z,9.20
2019-04-10T22:09:55.454Z,9.20
2019-04-10T22:12:31.247Z,9.10
2019-04-10T22:14:54.644Z,8.90
2019-04-10T22:17:23.125Z,9.00
2019-04-10T22:19:52.751Z,8.80
2019-04-10T22:22:22.257Z,8.90
2019-04-10T22:24:50.925Z,9.00
2019-04-10T22:27:19.330Z,9.00
2019-04-10T22:29:47.910Z,9.00
2019-04-10T22:32:16.495Z,9.00
2019-04-10T22:34:44.939Z,9.00
2019-04-10T22:37:15.500Z,8.90
2019-04-10T22:39:43.759Z,9.00
2019-04-10T22:42:13.003Z,9.00
2019-04-10T22:44:45.204Z,8.90
2019-04-10T22:47:11.586Z,8.90
2019-04-10T22:49:39.994Z,8.90
2019-04-10T22:52:08.905Z,8.90
2019-04-10T22:54:37.350Z,8.80
2019-04-10T22:57:06.916Z,8.80
2019-04-10T22:59:35.531Z,8.70
2019-04-10T23:02:09.602Z,8.70
2019-04-10T23:04:34.916Z,8.70
2019-04-10T23:07:03.955Z,8.60
2019-04-10T23:09:32.636Z,8.60
2019-04-10T23:12:02.235Z,8.60
2019-04-10T23:14:31.189Z,8.60
2019-04-10T23:17:00.186Z,8.70
2019-04-10T23:19:29.936Z,8.60
2019-04-10T23:21:58.563Z,8.50
2019-04-10T23:24:27.734Z,8.50
2019-04-10T23:26:57.487Z,8.50
2019-04-10T23:29:26.321Z,8.30
2019-04-10T23:31:54.889Z,8.30
2019-04-10T23:34:23.314Z,8.30
2019-04-10T23:36:51.796Z,8.40
2019-04-10T23:39:20.206Z,8.30
2019-04-10T23:41:50.974Z,8.30
2019-04-10T23:44:18.778Z,8.10
2019-04-10T23:46:47.437Z,8.20
2019-04-10T23:49:16.034Z,8.10
2019-04-10T23:51:45.394Z,8.10
2019-04-10T23:54:15.154Z,8.00
2019-04-10T23:56:45.066Z,7.80
2019-04-10T23:59:14.852Z,7.80
